Banja Luka, Bosnia and Herzegovina
Current Conditions -  °F | °C
As of 4:30 PM on Sunday 23 Nov 2014 (Local Time) from LQBK Reporting Station
Haze Haze  
Wind Chill: 39°   Ceiling: Unl
Heat Index: 39°   Visibility: 1.3mi
Dew Point: 36°   Wind: 2mph
Humidity: 87%   Direction: 360°N
Pressure: 30.39"   Gusts: NA
Location:  44.78°N, 17.19°E
Report Text: LQBK 231430Z 36002KT 2200 BR NSC 04/02 Q1029 NOSIG
Loading
Personal Weather Stations






























Interactive Weather Map New forecast layout! Learn more

10-Day Weather Forecast

Advertisements
Track Severe Weather on mobile